Aérodrome :







RETROUVEZ-NOUS SUR...

 
LOGIN :

S'inscrire | Disclaimer

   EN    FR    IT 

 









Légende :    VFR   VFR Marginal   IFR   IFR Intensif   IFR Très Intensif
Visi : 
Plafond : 
>= 8 km
>= 3000ft
5 à 8 km
1000 à 3000 ft
1500m à 5 km
500 à 1000 ft
800 à 1500m
200 à 500 ft
< 800m
< 200 ft
Symboles :   Orages  Brouillard  Fortes neiges  Fortes précipitations  Vent > 20 kt






- Altitude de l'aérodrome : 38 ft
- Code IATA : YMH


CYMH - Mary's Harbour

DERNIER METAR :
  • 070940Z AUTO 34008KT 6SM -RA BR BKN013 OVC020 04/04 A3000 RMK SLP162

METARs EXPIRÉS :
  • 070932Z AUTO 34005KT 300V010 4SM -RA BR OVC013 04/04 A3000 RMK SLP161
  • 070900Z AUTO 34005KT 9SM SCT017 BKN023 OVC029 05/04 A2999 RMK SLP157
  • 070851Z AUTO 34008KT 9SM SCT017 BKN023 OVC029 05/04 A2999 RMK SLP157
  • 070848Z AUTO 34007KT 9SM FEW017 SCT023 OVC027 05/04 A2999 RMK SLP157
  • 070814Z AUTO 36006KT 9SM -RA SCT021 OVC025 05/03 A2997 RMK SLP150
  • 070800Z AUTO 35007KT 9SM -RA BKN021 OVC025 05/03 A2997 RMK SLP150
  • 070750Z AUTO 35005KT 9SM -RA BKN021 OVC025 06/03 A2996 RMK SLP148
  • 070720Z AUTO 35007KT 9SM OVC016 06/03 A2995 RMK SLP145
  • 070700Z AUTO 35008KT 310V020 9SM -RA OVC016 06/03 A2995 RMK SLP144

TAF TAF CYMH
Valide du 07 à 09h jusqu'au 07 à 21h UTC


070840Z 0709/0721 36008KT P6SM -RA OVC020
TEMPO 0709/0718 P6SM NSW OVC025
BECMG 0712/0714 03010KT
FM071800 03010KT P6SM OVC025
TEMPO 0718/0721 P6SM -RA OVC020 RMK FCST BASED ON AUTO OBS. NXT FCST BY 071400Z
FIR CZQX / Amérique du Nord



MET'MAP, la Météo Aéronautique d'un coup d'oeil ! - Copyright ORBIFLY Décembre 2007 - Disclaimer

ORBIFLY MET'MAP TEAM :

Programmation & Développement : Alexandra Zaïnal
Sur une idée originale de : Baudouin d'Aumeries
Soutien technique & logistique : Manuel Goepfert
Assistance : Marc-Olivier Méhu




SOURCES & CREDITS :

   NOAA